Middle Georgia Regional Airport
KMCN : rendu visible

Aérodrome :











RETROUVEZ-NOUS SUR...

 
LOGIN :

S'inscrire | Disclaimer

   EN    FR    IT 

 









Légende :    VFR   VFR Marginal   IFR   IFR Intensif   IFR Très Intensif
Visi : 
Plafond : 
>= 8 km
>= 3000ft
5 à 8 km
1000 à 3000 ft
1500m à 5 km
500 à 1000 ft
800 à 1500m
200 à 500 ft
< 800m
< 200 ft
Symboles :   Orages  Brouillard  Fortes neiges  Fortes précipitations  Vent > 20 kt






- Altitude de l'aérodrome : 354 ft
- Code IATA : MCN


KMCN - Middle Georgia Regional

DERNIER METAR :
  • 082053Z 09008KT 10SM BKN044 18/04 A3021 RMK AO2 SLP226 T01780044 56024

METARs EXPIRÉS :
  • 081953Z 10008KT 10SM CLR 18/04 A3021 RMK AO2 SLP228 T01780039
  • 081853Z 09010KT 10SM FEW060 17/04 A3024 RMK AO2 SLP238 T01720039

TAF KMCN
Valide du 08 à 18h jusqu'au 09 à 18h UTC


081747Z 0818/0918 09011KT P6SM BKN070
FM090700 09007KT P6SM VCSH OVC025
FM091200 11006KT P6SM VCSH OVC008
TEMPO 0912/0915 6SM -RA BR BKN004
FM091500 14006KT 4SM -RADZ BR OVC004
FM091700 17007KT P6SM SCT008 BKN012



MET'MAP, la Météo Aéronautique d'un coup d'oeil ! - Copyright ORBIFLY Décembre 2007 - Disclaimer

ORBIFLY MET'MAP TEAM :

Programmation & Développement : Alexandra Zaïnal
Sur une idée originale de : Baudouin d'Aumeries
Assistance à la programmation : Marc-Olivier Méhu
Soutien technique & logistique : Manuel Goepfert

Contact : metmap@orbifly.com




SOURCES & CREDITS :

   NOAA       Earth
Advisory